Terminal Aerodrome Forecast
Issued by NWS

Home | Current Version | Previous Version | Text Only | Print | Product List | Glossary On
Versions: 1 2 3 4 5 6 7 8 9 10 11 12 13 14 15 16 17 18 19
277
FTUS42 KMLB 271137
TAFFPR
TAF
KFPR 271137Z 2712/2812 00000KT P6SM SKC
      TEMPO 2712/2713 4SM BR SCT006
     FM271400 06004KT P6SM FEW030
     FM271700 11010KT P6SM SKC
     FM280300 16004KT P6SM SKC=

USA.gov is the U.S. government's official web portal to all federal, state and local government web resources and services.